createdAt,value
2022-10-05T00:00:56.953Z,9.39
2022-10-05T00:03:40.390Z,9.41
2022-10-05T00:06:11.188Z,9.42
2022-10-05T00:08:39.209Z,9.44
2022-10-05T00:11:08.399Z,9.43
2022-10-05T00:13:36.060Z,9.42
2022-10-05T00:16:19.786Z,9.38
2022-10-05T00:18:50.532Z,9.38
2022-10-05T00:21:24.130Z,9.36
2022-10-05T00:23:55.595Z,9.36
2022-10-05T00:26:25.827Z,9.36
2022-10-05T00:28:55.194Z,9.39
2022-10-05T00:31:26.182Z,9.37
2022-10-05T00:33:55.867Z,9.36
2022-10-05T00:36:23.684Z,9.30
2022-10-05T00:38:52.272Z,9.27
2022-10-05T00:41:36.204Z,9.26
2022-10-05T00:44:12.723Z,9.26
2022-10-05T00:46:56.440Z,9.22
2022-10-05T00:49:36.476Z,9.20
2022-10-05T00:52:20.059Z,9.19
2022-10-05T00:55:00.039Z,9.15
2022-10-05T00:58:02.712Z,9.14
2022-10-05T01:00:34.156Z,9.15
2022-10-05T01:03:09.162Z,9.15
2022-10-05T01:06:13.068Z,9.12
2022-10-05T01:08:49.790Z,9.09
2022-10-05T01:11:35.461Z,9.10
2022-10-05T01:14:21.932Z,9.12
2022-10-05T01:17:20.342Z,9.19
2022-10-05T01:20:11.556Z,9.16
2022-10-05T01:23:11.158Z,9.16
2022-10-05T01:26:10.777Z,9.16
2022-10-05T01:29:05.264Z,9.13
2022-10-05T01:31:42.842Z,9.10
2022-10-05T01:34:46.976Z,9.08
2022-10-05T01:37:35.557Z,9.08
2022-10-05T01:40:15.082Z,9.09
2022-10-05T01:42:57.718Z,9.11
2022-10-05T01:45:41.480Z,9.13
2022-10-05T01:48:31.723Z,9.15
2022-10-05T01:51:21.251Z,9.16
2022-10-05T01:54:04.883Z,9.18
2022-10-05T01:56:51.661Z,9.17
2022-10-05T01:59:35.675Z,9.15
2022-10-05T02:02:05.175Z,9.16
2022-10-05T02:05:07.485Z,9.12
2022-10-05T02:07:54.903Z,9.10
2022-10-05T02:10:31.141Z,9.11
2022-10-05T02:13:19.625Z,9.12
2022-10-05T02:16:00.594Z,9.12
2022-10-05T02:18:37.502Z,9.14
2022-10-05T02:21:05.666Z,9.13
2022-10-05T02:23:38.021Z,9.14
2022-10-05T02:26:08.685Z,9.12
2022-10-05T02:28:45.637Z,9.14
2022-10-05T02:31:17.659Z,9.14
2022-10-05T02:33:47.205Z,9.14
2022-10-05T02:36:37.660Z,9.14
2022-10-05T02:39:14.687Z,9.14
2022-10-05T02:42:06.531Z,9.13
2022-10-05T02:44:59.395Z,9.13
2022-10-05T02:47:30.176Z,9.11
2022-10-05T02:50:14.233Z,9.10
2022-10-05T02:53:05.107Z,9.10
2022-10-05T02:56:09.035Z,9.08
2022-10-05T02:58:46.216Z,9.08
2022-10-05T03:01:35.564Z,9.12
2022-10-05T03:04:19.874Z,9.12
2022-10-05T03:06:55.874Z,9.12
2022-10-05T03:09:29.071Z,9.13
2022-10-05T03:12:09.716Z,9.13
2022-10-05T03:14:53.571Z,9.17
2022-10-05T03:17:28.610Z,9.23
2022-10-05T03:20:18.655Z,9.24
2022-10-05T03:22:50.982Z,9.25
2022-10-05T03:25:35.273Z,9.22
2022-10-05T03:28:21.345Z,9.21
2022-10-05T03:31:14.223Z,9.18
2022-10-05T03:33:49.901Z,9.20
2022-10-05T03:36:45.931Z,9.20
2022-10-05T03:39:27.310Z,9.22
2022-10-05T03:41:55.321Z,9.25
2022-10-05T03:44:48.151Z,9.26
2022-10-05T03:47:38.883Z,9.25
2022-10-05T03:50:29.381Z,9.25
2022-10-05T03:53:03.046Z,9.22
2022-10-05T03:55:30.703Z,9.19
2022-10-05T03:58:02.875Z,9.15
2022-10-05T04:00:32.010Z,9.12
2022-10-05T04:03:17.359Z,9.10
2022-10-05T04:06:09.100Z,9.08
2022-10-05T04:08:52.117Z,9.07
2022-10-05T04:11:31.761Z,9.08
2022-10-05T04:14:10.082Z,9.10
2022-10-05T04:16:45.188Z,9.12
2022-10-05T04:19:49.261Z,9.13
2022-10-05T04:22:25.487Z,9.13
2022-10-05T04:25:02.864Z,9.12
2022-10-05T04:27:39.142Z,9.13
2022-10-05T04:30:15.514Z,9.12
2022-10-05T04:33:00.486Z,9.12
2022-10-05T04:35:46.107Z,9.11
2022-10-05T04:38:17.205Z,9.12
2022-10-05T04:41:01.566Z,9.12
2022-10-05T04:43:46.371Z,9.13
2022-10-05T04:46:30.315Z,9.10
2022-10-05T04:49:30.383Z,9.06
2022-10-05T04:52:29.936Z,9.04
2022-10-05T04:55:19.917Z,9.04
2022-10-05T04:58:05.083Z,9.06
2022-10-05T05:01:05.091Z,9.04
2022-10-05T05:03:45.719Z,9.03
2022-10-05T05:06:24.810Z,9.04
2022-10-05T05:09:09.383Z,9.07
2022-10-05T05:12:09.266Z,9.08
2022-10-05T05:14:58.662Z,9.08
2022-10-05T05:18:00.225Z,9.07
2022-10-05T05:20:59.176Z,9.06
2022-10-05T05:23:40.075Z,9.09
2022-10-05T05:26:19.242Z,9.12
2022-10-05T05:28:50.514Z,9.14
2022-10-05T05:31:45.654Z,9.17
2022-10-05T05:34:37.261Z,9.23
2022-10-05T05:37:26.391Z,9.26
2022-10-05T05:40:10.041Z,9.29
2022-10-05T05:42:58.790Z,9.32
2022-10-05T05:45:44.175Z,9.37
2022-10-05T05:48:39.887Z,9.37
2022-10-05T05:51:14.154Z,9.36
2022-10-05T05:54:02.379Z,9.36
2022-10-05T05:56:34.763Z,9.37
2022-10-05T05:59:13.329Z,9.39
2022-10-05T06:01:49.006Z,9.44
2022-10-05T06:04:25.343Z,9.47
2022-10-05T06:06:58.100Z,9.50
2022-10-05T06:09:37.956Z,9.50
2022-10-05T06:12:41.753Z,9.50
2022-10-05T06:15:42.111Z,9.53
2022-10-05T06:18:20.403Z,9.57
2022-10-05T06:21:00.885Z,9.62
2022-10-05T06:24:00.597Z,9.71
2022-10-05T06:26:47.700Z,9.84
2022-10-05T06:29:22.728Z,9.95
2022-10-05T06:32:06.130Z,10.05
2022-10-05T06:34:55.572Z,10.15
2022-10-05T06:37:55.881Z,10.25
2022-10-05T06:40:47.799Z,10.35
2022-10-05T06:43:34.692Z,10.44
2022-10-05T06:46:24.579Z,10.55
2022-10-05T06:49:31.002Z,10.66
2022-10-05T06:52:52.608Z,10.77
2022-10-05T06:55:46.723Z,10.91
2022-10-05T06:58:27.723Z,11.04
2022-10-05T07:01:03.327Z,11.13
2022-10-05T07:03:49.844Z,11.22
2022-10-05T07:06:25.763Z,11.31
2022-10-05T07:09:25.348Z,11.42
2022-10-05T07:12:11.788Z,11.48
2022-10-05T07:15:13.291Z,11.52
2022-10-05T07:17:49.185Z,11.56
2022-10-05T07:20:46.849Z,11.65
2022-10-05T07:23:48.929Z,11.78
2022-10-05T07:26:49.341Z,11.86
2022-10-05T07:29:28.915Z,11.96
2022-10-05T07:32:10.892Z,12.00
2022-10-05T07:34:51.421Z,12.06
2022-10-05T07:37:45.521Z,12.13
2022-10-05T07:40:32.770Z,12.17
2022-10-05T07:43:16.400Z,12.24
2022-10-05T07:46:13.524Z,12.36
2022-10-05T07:48:41.342Z,12.46
2022-10-05T07:51:23.187Z,12.53
2022-10-05T07:54:03.807Z,12.56
2022-10-05T07:56:59.322Z,12.67
2022-10-05T07:59:54.166Z,12.77
2022-10-05T08:02:33.409Z,12.85
2022-10-05T08:05:26.675Z,12.88
2022-10-05T08:08:19.630Z,12.90
2022-10-05T08:11:05.194Z,12.94
2022-10-05T08:13:51.512Z,13.04
2022-10-05T08:16:19.836Z,13.13
2022-10-05T08:19:14.255Z,13.16
2022-10-05T08:21:54.144Z,13.23
2022-10-05T08:24:49.773Z,13.29
2022-10-05T08:27:30.051Z,13.35
2022-10-05T08:30:08.985Z,13.40
2022-10-05T08:33:00.480Z,13.40
2022-10-05T08:35:38.501Z,13.39
2022-10-05T08:38:16.840Z,13.44
2022-10-05T08:41:03.012Z,13.47
2022-10-05T08:44:02.634Z,13.51
2022-10-05T08:46:43.305Z,13.59
2022-10-05T08:49:23.541Z,13.70
2022-10-05T08:52:13.243Z,13.86
2022-10-05T08:55:00.012Z,14.06
2022-10-05T08:57:59.812Z,14.30
2022-10-05T09:00:51.685Z,14.57
2022-10-05T09:03:34.842Z,14.76
2022-10-05T09:06:27.070Z,14.85
2022-10-05T09:09:09.219Z,14.86
2022-10-05T09:11:44.968Z,14.90
2022-10-05T09:14:52.431Z,14.95
2022-10-05T09:17:43.064Z,15.01
2022-10-05T09:20:22.775Z,15.09
2022-10-05T09:22:58.052Z,15.17
2022-10-05T09:25:31.497Z,15.23
2022-10-05T09:28:06.642Z,15.24
2022-10-05T09:30:58.359Z,15.21
2022-10-05T09:33:54.295Z,15.27
2022-10-05T09:36:53.855Z,15.26
2022-10-05T09:39:42.947Z,15.23
2022-10-05T09:42:35.828Z,15.22
2022-10-05T09:45:25.759Z,15.28
2022-10-05T09:48:25.917Z,15.33
2022-10-05T09:51:26.643Z,15.37
2022-10-05T09:54:28.879Z,15.42
2022-10-05T09:57:31.509Z,15.39
2022-10-05T10:00:38.546Z,15.43
2022-10-05T10:03:25.493Z,15.51
2022-10-05T10:06:25.413Z,15.59
2022-10-05T10:09:09.197Z,15.61
2022-10-05T10:12:08.813Z,15.67
2022-10-05T10:14:58.232Z,15.78
2022-10-05T10:17:40.221Z,15.98
2022-10-05T10:20:24.511Z,16.12
2022-10-05T10:23:34.159Z,16.28
2022-10-05T10:26:24.836Z,16.44
2022-10-05T10:29:28.454Z,16.59
2022-10-05T10:31:57.296Z,16.73
2022-10-05T10:34:44.057Z,16.83
2022-10-05T10:37:34.308Z,16.92
2022-10-05T10:40:20.247Z,17.02
2022-10-05T10:43:14.683Z,17.05
2022-10-05T10:46:05.451Z,17.13
2022-10-05T10:49:15.677Z,17.23
2022-10-05T10:52:02.345Z,17.27
2022-10-05T10:55:06.369Z,17.33
2022-10-05T10:58:12.350Z,17.46
2022-10-05T11:00:54.734Z,17.55
2022-10-05T11:03:57.364Z,17.58
2022-10-05T11:06:56.989Z,17.56
2022-10-05T11:09:40.987Z,17.52
2022-10-05T11:12:18.089Z,17.51
2022-10-05T11:15:00.697Z,17.50
2022-10-05T11:17:55.210Z,17.52
2022-10-05T11:20:56.103Z,17.53
2022-10-05T11:23:45.850Z,17.60
2022-10-05T11:26:41.474Z,17.67
2022-10-05T11:29:41.461Z,17.66
2022-10-05T11:32:29.504Z,17.67
2022-10-05T11:35:06.392Z,17.64
2022-10-05T11:37:53.654Z,17.58
2022-10-05T11:40:36.382Z,17.53
2022-10-05T11:43:25.885Z,17.46
2022-10-05T11:46:16.708Z,17.38
2022-10-05T11:49:03.215Z,17.36
2022-10-05T11:51:47.401Z,17.37
2022-10-05T11:54:25.746Z,17.36
2022-10-05T11:57:03.957Z,17.36
2022-10-05T11:59:43.145Z,17.38
2022-10-05T12:02:27.232Z,17.39
2022-10-05T12:05:11.205Z,17.33
2022-10-05T12:07:47.620Z,17.29
2022-10-05T12:10:40.277Z,17.22
2022-10-05T12:13:19.328Z,17.18
2022-10-05T12:16:19.367Z,17.16
2022-10-05T12:19:06.854Z,17.17
2022-10-05T12:21:41.579Z,17.17
2022-10-05T12:24:31.493Z,17.19
2022-10-05T12:27:05.780Z,17.26
2022-10-05T12:29:52.765Z,17.28
2022-10-05T12:32:44.714Z,17.27
2022-10-05T12:35:43.926Z,17.33
2022-10-05T12:38:28.720Z,17.46
2022-10-05T12:41:12.970Z,17.54
2022-10-05T12:43:48.259Z,17.55
2022-10-05T12:46:19.063Z,17.47
2022-10-05T12:49:08.691Z,17.43
2022-10-05T12:51:59.944Z,17.36
2022-10-05T12:54:39.060Z,17.33
2022-10-05T12:57:35.535Z,17.30
2022-10-05T13:00:22.457Z,17.24
2022-10-05T13:02:58.066Z,17.19
2022-10-05T13:05:47.168Z,17.15
2022-10-05T13:08:25.437Z,17.07
2022-10-05T13:11:25.032Z,17.01
2022-10-05T13:14:11.504Z,16.99
2022-10-05T13:17:01.122Z,16.94
2022-10-05T13:19:44.564Z,16.83
2022-10-05T13:22:28.279Z,16.75
2022-10-05T13:25:28.553Z,16.64
2022-10-05T13:28:13.035Z,16.54
2022-10-05T13:30:50.597Z,16.48
2022-10-05T13:33:27.167Z,16.42
2022-10-05T13:36:22.590Z,16.35
2022-10-05T13:39:12.504Z,16.29
2022-10-05T13:42:16.376Z,16.25
2022-10-05T13:45:03.247Z,16.19
2022-10-05T13:48:03.094Z,16.17
2022-10-05T13:50:35.415Z,16.13
2022-10-05T13:53:19.166Z,16.07
2022-10-05T13:56:02.762Z,16.02
2022-10-05T13:58:41.591Z,15.94
2022-10-05T14:01:51.448Z,15.92
2022-10-05T14:04:24.635Z,15.86
2022-10-05T14:06:52.653Z,15.82
2022-10-05T14:09:20.266Z,15.78
2022-10-05T14:11:50.880Z,15.76
2022-10-05T14:14:43.019Z,15.75
2022-10-05T14:17:16.744Z,15.75
2022-10-05T14:19:51.048Z,15.75
2022-10-05T14:22:24.794Z,15.74
2022-10-05T14:25:02.849Z,15.73
2022-10-05T14:27:35.129Z,15.73
2022-10-05T14:30:20.788Z,15.75
2022-10-05T14:33:09.044Z,15.74
2022-10-05T14:35:54.608Z,15.73
2022-10-05T14:38:29.813Z,15.73
2022-10-05T14:41:14.768Z,15.72
2022-10-05T14:44:04.539Z,15.72
2022-10-05T14:46:35.542Z,15.71
2022-10-05T14:49:22.159Z,15.69
2022-10-05T14:51:51.561Z,15.65
2022-10-05T14:54:25.146Z,15.61
2022-10-05T14:57:25.354Z,15.57
2022-10-05T15:00:12.367Z,15.47
2022-10-05T15:03:16.146Z,15.42
2022-10-05T15:05:59.369Z,15.35
2022-10-05T15:08:59.983Z,15.30
2022-10-05T15:11:56.360Z,15.29
2022-10-05T15:14:27.199Z,15.28
2022-10-05T15:17:01.734Z,15.27
2022-10-05T15:19:40.954Z,15.28
2022-10-05T15:22:25.301Z,15.29
2022-10-05T15:25:15.081Z,15.32
2022-10-05T15:28:09.574Z,15.34
2022-10-05T15:30:55.913Z,15.33
2022-10-05T15:34:00.117Z,15.29
2022-10-05T15:36:50.194Z,15.25
2022-10-05T15:39:34.621Z,15.21
2022-10-05T15:42:09.623Z,15.17
2022-10-05T15:45:00.104Z,15.12
2022-10-05T15:47:47.186Z,15.06
2022-10-05T15:50:26.385Z,14.98
2022-10-05T15:53:07.295Z,14.90
2022-10-05T15:55:54.727Z,14.82
2022-10-05T15:58:31.083Z,14.75
2022-10-05T16:01:07.962Z,14.70
2022-10-05T16:04:07.764Z,14.64
2022-10-05T16:07:23.368Z,14.54
2022-10-05T16:10:15.977Z,14.45
2022-10-05T16:13:15.846Z,14.39
2022-10-05T16:15:55.138Z,14.31
2022-10-05T16:18:45.646Z,14.24
2022-10-05T16:21:19.446Z,14.15
2022-10-05T16:24:07.035Z,14.07
2022-10-05T16:27:04.151Z,14.02
2022-10-05T16:30:00.396Z,13.99
2022-10-05T16:32:46.677Z,13.98
2022-10-05T16:35:24.853Z,13.92
2022-10-05T16:38:14.669Z,13.85
2022-10-05T16:41:01.883Z,13.80
2022-10-05T16:43:46.033Z,13.76
2022-10-05T16:46:27.758Z,13.71
2022-10-05T16:49:04.127Z,13.64
2022-10-05T16:51:59.808Z,13.58
2022-10-05T16:54:48.938Z,13.53
2022-10-05T16:57:45.312Z,13.50
2022-10-05T17:00:21.067Z,13.50
2022-10-05T17:03:11.318Z,13.47
2022-10-05T17:05:55.622Z,13.46
2022-10-05T17:08:45.895Z,13.45
2022-10-05T17:11:45.754Z,13.42
2022-10-05T17:14:45.485Z,13.39
2022-10-05T17:17:36.474Z,13.32
2022-10-05T17:20:35.407Z,13.25
2022-10-05T17:23:23.399Z,13.19
2022-10-05T17:26:24.045Z,13.13
2022-10-05T17:28:51.660Z,13.07
2022-10-05T17:31:22.258Z,13.05
2022-10-05T17:34:13.062Z,13.02
2022-10-05T17:36:42.858Z,12.97
2022-10-05T17:39:17.899Z,12.94
2022-10-05T17:41:46.797Z,12.89
2022-10-05T17:44:16.148Z,12.84
2022-10-05T17:46:48.455Z,12.78
2022-10-05T17:49:33.991Z,12.70
2022-10-05T17:52:23.485Z,12.65
2022-10-05T17:55:12.563Z,12.57
2022-10-05T17:57:41.872Z,12.50
2022-10-05T18:00:25.464Z,12.43
2022-10-05T18:02:58.045Z,12.38
2022-10-05T18:05:28.569Z,12.33
2022-10-05T18:08:12.777Z,12.30
2022-10-05T18:11:12.483Z,12.27
2022-10-05T18:13:46.256Z,12.27
2022-10-05T18:16:49.937Z,12.23
2022-10-05T18:19:21.762Z,12.16
2022-10-05T18:22:30.299Z,12.10
2022-10-05T18:25:29.566Z,12.02
2022-10-05T18:28:12.124Z,11.98
2022-10-05T18:30:59.151Z,11.95
2022-10-05T18:33:30.378Z,11.94
2022-10-05T18:36:36.894Z,11.93
2022-10-05T18:39:21.792Z,11.92
2022-10-05T18:42:06.941Z,11.91
2022-10-05T18:44:48.335Z,11.96
2022-10-05T18:47:34.665Z,11.99
2022-10-05T18:50:21.673Z,12.02
2022-10-05T18:53:02.028Z,12.00
2022-10-05T18:55:43.552Z,11.96
2022-10-05T18:58:36.004Z,11.91
2022-10-05T19:01:29.178Z,11.85
2022-10-05T19:04:04.891Z,11.81
2022-10-05T19:06:51.747Z,11.79
2022-10-05T19:09:41.503Z,11.77
2022-10-05T19:12:19.992Z,11.74
2022-10-05T19:14:51.031Z,11.71
2022-10-05T19:17:18.733Z,11.69
2022-10-05T19:20:18.426Z,11.69
2022-10-05T19:22:52.204Z,11.69
2022-10-05T19:25:20.498Z,11.67
2022-10-05T19:27:55.541Z,11.63
2022-10-05T19:30:27.195Z,11.60
2022-10-05T19:33:34.508Z,11.56
2022-10-05T19:36:34.201Z,11.49
2022-10-05T19:39:17.275Z,11.43
2022-10-05T19:41:47.829Z,11.42
2022-10-05T19:44:45.985Z,11.42
2022-10-05T19:47:40.263Z,11.41
2022-10-05T19:50:27.631Z,11.37
2022-10-05T19:53:12.740Z,11.35
2022-10-05T19:55:43.672Z,11.32
2022-10-05T19:58:28.839Z,11.27
2022-10-05T20:01:02.295Z,11.23
2022-10-05T20:03:32.347Z,11.19
2022-10-05T20:06:02.375Z,11.18
2022-10-05T20:08:46.851Z,11.15
2022-10-05T20:11:20.412Z,11.13
2022-10-05T20:13:48.058Z,11.12
2022-10-05T20:16:31.822Z,11.12
2022-10-05T20:19:15.866Z,11.10
2022-10-05T20:22:19.426Z,11.07
2022-10-05T20:24:52.899Z,11.04
2022-10-05T20:27:42.297Z,11.04
2022-10-05T20:30:12.957Z,11.01
2022-10-05T20:32:41.471Z,10.98
2022-10-05T20:35:09.332Z,10.96
2022-10-05T20:37:37.092Z,10.92
2022-10-05T20:40:06.724Z,10.90
2022-10-05T20:42:34.781Z,10.88
2022-10-05T20:45:04.078Z,10.89
2022-10-05T20:47:32.180Z,10.90
2022-10-05T20:50:01.981Z,10.90
2022-10-05T20:52:31.574Z,10.87
2022-10-05T20:55:00.282Z,10.88
2022-10-05T20:57:27.981Z,10.90
2022-10-05T20:59:55.641Z,10.90
2022-10-05T21:02:23.657Z,10.92
2022-10-05T21:04:51.712Z,10.92
2022-10-05T21:07:21.078Z,10.90
2022-10-05T21:09:49.571Z,10.89
2022-10-05T21:12:17.338Z,10.89
2022-10-05T21:14:46.176Z,10.91
2022-10-05T21:17:14.180Z,10.92
2022-10-05T21:19:41.987Z,10.94
2022-10-05T21:22:10.342Z,10.98
2022-10-05T21:24:40.714Z,11.00
2022-10-05T21:27:10.172Z,11.03
2022-10-05T21:29:40.861Z,11.06
2022-10-05T21:32:11.252Z,11.08
2022-10-05T21:34:40.260Z,11.10
2022-10-05T21:37:08.711Z,11.11
2022-10-05T21:39:36.784Z,11.11
2022-10-05T21:42:04.664Z,11.14
2022-10-05T21:44:32.403Z,11.16
2022-10-05T21:47:00.094Z,11.17
2022-10-05T21:49:28.274Z,11.18
2022-10-05T21:51:56.991Z,11.17
2022-10-05T21:54:24.863Z,11.17
2022-10-05T21:56:56.111Z,11.18
2022-10-05T21:59:29.122Z,11.18
2022-10-05T22:01:57.407Z,11.17
2022-10-05T22:04:25.642Z,11.16
2022-10-05T22:06:55.442Z,11.14
2022-10-05T22:09:23.286Z,11.12
2022-10-05T22:11:51.404Z,11.11
2022-10-05T22:14:19.098Z,11.10
2022-10-05T22:16:47.182Z,11.08
2022-10-05T22:19:18.693Z,11.04
2022-10-05T22:21:46.834Z,11.01
2022-10-05T22:24:14.588Z,11.01
2022-10-05T22:26:45.982Z,10.99
2022-10-05T22:29:15.905Z,11.00
2022-10-05T22:31:46.247Z,11.00
2022-10-05T22:34:15.500Z,10.99
2022-10-05T22:36:43.392Z,11.00
2022-10-05T22:39:11.192Z,11.01
2022-10-05T22:41:38.849Z,11.00
2022-10-05T22:44:07.582Z,10.98
2022-10-05T22:46:35.817Z,10.99
2022-10-05T22:49:03.521Z,10.97
2022-10-05T22:51:31.227Z,10.92
2022-10-05T22:53:58.901Z,10.91
2022-10-05T22:56:26.962Z,10.90
2022-10-05T22:58:54.674Z,10.90
2022-10-05T23:01:22.667Z,10.90
2022-10-05T23:03:50.703Z,10.89
2022-10-05T23:06:20.445Z,10.90
2022-10-05T23:08:48.135Z,10.92
2022-10-05T23:11:23.667Z,10.91
2022-10-05T23:13:56.799Z,10.88
2022-10-05T23:16:26.944Z,10.87
2022-10-05T23:18:55.313Z,10.86
2022-10-05T23:21:25.193Z,10.82
2022-10-05T23:23:53.080Z,10.76
2022-10-05T23:26:23.276Z,10.73
2022-10-05T23:28:51.014Z,10.70
2022-10-05T23:31:24.396Z,10.68
2022-10-05T23:33:53.635Z,10.66
2022-10-05T23:36:32.318Z,10.65
2022-10-05T23:39:00.343Z,10.65
2022-10-05T23:41:28.795Z,10.64
2022-10-05T23:43:56.503Z,10.63
2022-10-05T23:46:24.544Z,10.62
2022-10-05T23:48:53.134Z,10.61
2022-10-05T23:51:20.827Z,10.60
2022-10-05T23:53:48.501Z,10.59
2022-10-05T23:56:16.432Z,10.58
2022-10-05T23:58:45.041Z,10.59
